createdAt,value
2018-05-21T00:00:29.178Z,99.90
2018-05-21T00:02:56.714Z,99.90
2018-05-21T00:05:24.270Z,99.90
2018-05-21T00:07:51.801Z,99.90
2018-05-21T00:10:19.407Z,99.90
2018-05-21T00:12:46.969Z,99.90
2018-05-21T00:15:14.530Z,99.90
2018-05-21T00:17:42.099Z,99.90
2018-05-21T00:20:09.651Z,99.90
2018-05-21T00:22:37.190Z,99.90
2018-05-21T00:25:04.804Z,99.90
2018-05-21T00:27:32.384Z,99.90
2018-05-21T00:29:59.949Z,99.90
2018-05-21T00:32:27.534Z,99.90
2018-05-21T00:34:55.090Z,99.90
2018-05-21T00:37:22.641Z,99.90
2018-05-21T00:39:50.938Z,99.90
2018-05-21T00:42:18.491Z,99.90
2018-05-21T00:44:46.810Z,99.90
2018-05-21T00:47:14.404Z,99.90
2018-05-21T00:49:41.934Z,99.90
2018-05-21T00:52:10.254Z,99.90
2018-05-21T00:54:38.554Z,99.90
2018-05-21T00:57:06.106Z,99.90
2018-05-21T00:59:33.640Z,99.90
2018-05-21T01:02:01.968Z,99.90
2018-05-21T01:04:29.522Z,99.90
2018-05-21T01:06:57.070Z,99.90
2018-05-21T01:09:25.375Z,99.90
2018-05-21T01:11:53.691Z,99.90
2018-05-21T01:14:21.222Z,99.90
2018-05-21T01:16:49.543Z,99.90
2018-05-21T01:19:17.074Z,99.90
2018-05-21T01:21:44.656Z,99.90
2018-05-21T01:24:12.974Z,99.90
2018-05-21T01:26:40.526Z,99.90
2018-05-21T01:29:08.851Z,99.90
2018-05-21T01:31:36.410Z,99.90
2018-05-21T01:34:03.959Z,99.90
2018-05-21T01:36:32.325Z,99.90
2018-05-21T01:38:59.864Z,99.90
2018-05-21T01:41:27.443Z,99.90
2018-05-21T01:43:55.002Z,99.90
2018-05-21T01:46:22.539Z,99.90
2018-05-21T01:48:50.861Z,99.90
2018-05-21T01:51:19.167Z,99.90
2018-05-21T01:53:46.740Z,99.90
2018-05-21T01:56:14.284Z,99.90
2018-05-21T01:58:41.851Z,99.90
2018-05-21T02:01:09.428Z,99.90
2018-05-21T02:03:36.996Z,99.90
2018-05-21T02:06:04.545Z,99.90
2018-05-21T02:08:32.148Z,99.90
2018-05-21T02:10:59.702Z,99.90
2018-05-21T02:13:27.265Z,99.90
2018-05-21T02:15:54.807Z,99.90
2018-05-21T02:18:22.375Z,99.90
2018-05-21T02:20:49.916Z,99.90
2018-05-21T02:23:17.490Z,99.90
2018-05-21T02:25:45.068Z,99.90
2018-05-21T02:28:12.639Z,99.90
2018-05-21T02:30:40.950Z,99.90
2018-05-21T02:33:08.535Z,99.90
2018-05-21T02:35:36.843Z,99.90
2018-05-21T02:38:04.416Z,99.90
2018-05-21T02:40:31.959Z,99.90
2018-05-21T02:42:59.639Z,99.90
2018-05-21T02:45:27.119Z,99.90
2018-05-21T02:47:55.452Z,99.90
2018-05-21T02:50:23.006Z,99.90
2018-05-21T02:52:50.554Z,99.90
2018-05-21T02:55:18.909Z,99.90
2018-05-21T02:57:46.447Z,99.90
2018-05-21T03:00:14.005Z,99.90
2018-05-21T03:02:41.617Z,99.90
2018-05-21T03:05:09.186Z,99.90
2018-05-21T03:07:36.727Z,99.90
2018-05-21T03:10:04.312Z,99.90
2018-05-21T03:12:31.855Z,99.90
2018-05-21T03:14:59.443Z,99.90
2018-05-21T03:17:27.011Z,99.90
2018-05-21T03:19:54.580Z,99.90
2018-05-21T03:22:22.137Z,99.90
2018-05-21T03:24:50.466Z,99.90
2018-05-21T03:27:18.040Z,99.90
2018-05-21T03:29:45.609Z,99.90
2018-05-21T03:32:13.150Z,99.90
2018-05-21T03:34:41.535Z,99.90
2018-05-21T03:37:09.095Z,99.90
2018-05-21T03:39:37.447Z,99.90
2018-05-21T03:42:04.996Z,99.90
2018-05-21T03:44:32.563Z,99.90
2018-05-21T03:47:00.113Z,99.90
2018-05-21T03:49:28.443Z,99.90
2018-05-21T03:51:56.017Z,99.90
2018-05-21T03:54:23.606Z,99.90
2018-05-21T03:56:51.169Z,99.90
2018-05-21T03:59:30.622Z,99.90
2018-05-21T04:02:09.987Z,99.90
2018-05-21T04:04:37.566Z,99.90
2018-05-21T04:07:05.121Z,99.90
2018-05-21T04:09:32.687Z,99.90
2018-05-21T04:12:00.365Z,99.90
2018-05-21T04:14:27.824Z,99.90
2018-05-21T04:16:55.403Z,99.90
2018-05-21T04:19:22.973Z,99.90
2018-05-21T04:21:50.531Z,99.90
2018-05-21T04:24:18.084Z,99.90
2018-05-21T04:26:45.659Z,99.90
2018-05-21T04:29:13.210Z,99.90
2018-05-21T04:31:41.923Z,99.90
2018-05-21T04:34:09.472Z,99.90
2018-05-21T04:36:37.798Z,99.90
2018-05-21T04:39:05.352Z,99.90
2018-05-21T04:41:32.911Z,99.90
2018-05-21T04:44:00.455Z,99.90
2018-05-21T04:46:28.027Z,99.90
2018-05-21T04:48:55.575Z,99.90
2018-05-21T04:51:23.239Z,99.70
2018-05-21T04:53:50.853Z,99.90
2018-05-21T04:56:18.429Z,99.60
2018-05-21T04:58:46.745Z,98.70
2018-05-21T05:01:14.312Z,98.70
2018-05-21T05:03:41.870Z,99.70
2018-05-21T05:06:09.428Z,98.90
2018-05-21T05:08:37.755Z,97.80
2018-05-21T05:11:05.304Z,97.80
2018-05-21T05:13:32.914Z,97.30
2018-05-21T05:16:00.490Z,96.90
2018-05-21T05:18:28.059Z,97.00
2018-05-21T05:20:55.639Z,97.30
2018-05-21T05:23:23.208Z,97.60
2018-05-21T05:25:51.556Z,96.70
2018-05-21T05:28:19.125Z,96.50
2018-05-21T05:30:46.716Z,97.20
2018-05-21T05:33:14.281Z,98.40
2018-05-21T05:35:41.833Z,97.50
2018-05-21T05:38:10.163Z,98.80
2018-05-21T05:40:37.746Z,98.50
2018-05-21T05:43:05.338Z,98.50
2018-05-21T05:45:32.891Z,98.90
2018-05-21T05:48:00.514Z,98.50
2018-05-21T05:50:28.855Z,97.90
2018-05-21T05:52:56.436Z,97.90
2018-05-21T05:55:23.984Z,98.20
2018-05-21T05:57:51.556Z,98.10
2018-05-21T06:00:19.135Z,98.80
2018-05-21T06:02:46.712Z,96.90
2018-05-21T06:05:14.271Z,97.70
2018-05-21T06:07:41.845Z,97.30
2018-05-21T06:10:09.394Z,97.00
2018-05-21T06:12:37.000Z,95.80
2018-05-21T06:15:04.556Z,96.70
2018-05-21T06:17:32.113Z,95.50
2018-05-21T06:19:59.706Z,95.30
2018-05-21T06:22:27.288Z,94.60
2018-05-21T06:24:54.912Z,93.60
2018-05-21T06:27:22.477Z,92.80
2018-05-21T06:29:50.846Z,92.30
2018-05-21T06:32:18.391Z,92.20
2018-05-21T06:34:45.962Z,91.80
2018-05-21T06:37:13.515Z,91.70
2018-05-21T06:39:41.079Z,90.70
2018-05-21T06:42:08.627Z,90.30
2018-05-21T06:44:36.964Z,83.50
2018-05-21T06:47:04.514Z,83.50
2018-05-21T06:49:32.838Z,86.70
2018-05-21T06:52:00.390Z,86.30
2018-05-21T06:54:27.961Z,84.80
2018-05-21T06:56:55.788Z,80.30
2018-05-21T06:59:24.192Z,81.70
2018-05-21T07:01:51.834Z,81.60
2018-05-21T07:04:19.438Z,78.80
2018-05-21T07:06:47.000Z,74.80
2018-05-21T07:09:15.340Z,75.10
2018-05-21T07:11:42.892Z,75.10
2018-05-21T07:14:10.469Z,77.20
2018-05-21T07:16:38.021Z,72.20
2018-05-21T07:19:05.608Z,74.10
2018-05-21T07:21:33.156Z,77.40
2018-05-21T07:24:00.707Z,80.40
2018-05-21T07:26:28.288Z,73.60
2018-05-21T07:28:56.635Z,73.20
2018-05-21T07:31:24.279Z,73.30
2018-05-21T07:33:51.937Z,69.30
2018-05-21T07:36:20.276Z,72.30
2018-05-21T07:38:47.978Z,72.30
2018-05-21T07:41:15.531Z,68.20
2018-05-21T07:43:43.139Z,72.50
2018-05-21T07:46:11.477Z,69.90
2018-05-21T07:48:39.044Z,69.90
2018-05-21T07:51:06.617Z,66.90
2018-05-21T07:53:34.191Z,69.60
2018-05-21T07:56:01.760Z,67.50
2018-05-21T07:58:29.349Z,67.50
2018-05-21T08:00:56.915Z,68.00
2018-05-21T08:03:24.475Z,68.80
2018-05-21T08:05:52.055Z,69.00
2018-05-21T08:08:19.602Z,63.10
2018-05-21T08:10:47.943Z,61.60
2018-05-21T08:13:15.508Z,61.60
2018-05-21T08:15:43.083Z,65.60
2018-05-21T08:18:10.645Z,59.10
2018-05-21T08:20:38.217Z,55.70
2018-05-21T08:23:05.784Z,60.30
2018-05-21T08:25:33.342Z,59.00
2018-05-21T08:28:00.899Z,60.40
2018-05-21T08:30:28.488Z,56.80
2018-05-21T08:32:56.049Z,59.50
2018-05-21T08:35:23.648Z,52.80
2018-05-21T08:37:51.245Z,49.40
2018-05-21T08:40:18.797Z,49.20
2018-05-21T08:42:47.099Z,51.30
2018-05-21T08:45:15.423Z,50.70
2018-05-21T08:47:43.016Z,51.30
2018-05-21T08:50:10.573Z,51.50
2018-05-21T08:52:38.166Z,46.90
2018-05-21T08:55:05.795Z,48.80
2018-05-21T08:57:34.213Z,52.90
2018-05-21T09:00:01.774Z,52.90
2018-05-21T09:02:30.119Z,51.60
2018-05-21T09:04:57.671Z,51.40
2018-05-21T09:07:25.265Z,49.40
2018-05-21T09:09:52.840Z,46.30
2018-05-21T09:12:20.421Z,46.00
2018-05-21T09:14:48.755Z,46.30
2018-05-21T09:17:16.379Z,46.20
2018-05-21T09:19:43.955Z,47.50
2018-05-21T09:22:12.013Z,43.90
2018-05-21T09:24:40.059Z,43.10
2018-05-21T09:27:07.645Z,43.70
2018-05-21T09:29:35.192Z,41.50
2018-05-21T09:32:03.568Z,42.70
2018-05-21T09:34:31.157Z,42.80
2018-05-21T09:36:59.492Z,43.50
2018-05-21T09:39:27.045Z,43.50
2018-05-21T09:41:54.671Z,45.40
2018-05-21T09:44:22.284Z,44.80
2018-05-21T09:46:49.833Z,45.30
2018-05-21T09:49:18.191Z,44.00
2018-05-21T09:51:45.815Z,44.00
2018-05-21T09:54:13.367Z,44.10
2018-05-21T09:56:41.684Z,42.70
2018-05-21T09:59:09.261Z,42.70
2018-05-21T10:01:37.031Z,44.50
2018-05-21T10:04:04.636Z,43.60
2018-05-21T10:06:32.206Z,44.10
2018-05-21T10:09:00.112Z,43.90
2018-05-21T10:11:27.690Z,46.80
2018-05-21T10:13:55.258Z,45.50
2018-05-21T10:16:22.807Z,45.10
2018-05-21T10:18:50.379Z,46.10
2018-05-21T10:21:17.952Z,45.70
2018-05-21T10:23:45.561Z,45.70
2018-05-21T10:26:13.907Z,46.20
2018-05-21T10:28:41.512Z,46.10
2018-05-21T10:31:09.092Z,46.40
2018-05-21T10:33:37.446Z,42.80
2018-05-21T10:36:05.096Z,42.70
2018-05-21T10:38:32.701Z,42.50
2018-05-21T10:41:00.253Z,42.10
2018-05-21T10:43:27.828Z,43.20
2018-05-21T10:45:55.434Z,41.80
2018-05-21T10:48:23.006Z,42.00
2018-05-21T10:50:50.575Z,40.70
2018-05-21T10:53:18.192Z,41.00
2018-05-21T10:55:45.767Z,41.40
2018-05-21T10:58:13.351Z,42.70
2018-05-21T11:00:40.933Z,40.60
2018-05-21T11:03:08.499Z,41.10
2018-05-21T11:05:36.075Z,41.30
2018-05-21T11:08:03.639Z,42.50
2018-05-21T11:10:31.219Z,41.10
2018-05-21T11:12:58.776Z,40.90
2018-05-21T11:15:26.349Z,40.50
2018-05-21T11:17:53.957Z,40.20
2018-05-21T11:20:21.490Z,40.90
2018-05-21T11:22:49.040Z,42.10
2018-05-21T11:25:16.609Z,41.60
2018-05-21T11:27:44.178Z,41.40
2018-05-21T11:30:16.176Z,41.10
2018-05-21T11:32:43.724Z,41.10
2018-05-21T11:35:11.295Z,42.40
2018-05-21T11:37:39.617Z,41.60
2018-05-21T11:40:07.192Z,41.60
2018-05-21T11:42:34.747Z,41.40
2018-05-21T11:45:02.328Z,41.60
2018-05-21T11:47:29.889Z,41.70
2018-05-21T11:49:57.460Z,43.20
2018-05-21T11:52:25.041Z,42.80
2018-05-21T11:54:52.648Z,42.20
2018-05-21T11:57:20.205Z,40.80
2018-05-21T11:59:47.783Z,41.60
2018-05-21T12:02:15.364Z,40.90
2018-05-21T12:04:42.932Z,42.00
2018-05-21T12:07:10.478Z,42.90
2018-05-21T12:09:38.056Z,40.00
2018-05-21T12:12:06.498Z,40.30
2018-05-21T12:14:34.844Z,40.90
2018-05-21T12:17:02.387Z,40.90
2018-05-21T12:19:29.931Z,40.20
2018-05-21T12:21:58.273Z,40.80
2018-05-21T12:24:25.844Z,40.80
2018-05-21T12:26:53.411Z,40.80
2018-05-21T12:29:20.967Z,43.00
2018-05-21T12:31:48.579Z,42.80
2018-05-21T12:34:16.128Z,40.90
2018-05-21T12:36:43.708Z,40.70
2018-05-21T12:39:11.304Z,42.10
2018-05-21T12:41:38.869Z,42.60
2018-05-21T12:44:06.424Z,41.80
2018-05-21T12:46:34.023Z,43.30
2018-05-21T12:49:01.616Z,43.30
2018-05-21T12:51:29.957Z,42.80
2018-05-21T12:53:57.536Z,42.80
2018-05-21T12:56:25.124Z,42.70
2018-05-21T12:58:52.670Z,42.00
2018-05-21T13:01:22.697Z,43.00
2018-05-21T13:03:50.298Z,41.50
2018-05-21T13:06:18.428Z,42.20
2018-05-21T13:08:45.984Z,41.40
2018-05-21T13:11:13.576Z,41.30
2018-05-21T13:13:41.152Z,39.00
2018-05-21T13:16:08.725Z,39.10
2018-05-21T13:18:36.279Z,41.00
2018-05-21T13:21:03.867Z,41.10
2018-05-21T13:23:31.428Z,41.00
2018-05-21T13:25:59.007Z,41.80
2018-05-21T13:28:26.576Z,42.30
2018-05-21T13:30:54.153Z,41.70
2018-05-21T13:33:22.484Z,40.10
2018-05-21T13:35:50.710Z,40.20
2018-05-21T13:38:19.046Z,40.10
2018-05-21T13:40:47.376Z,40.50
2018-05-21T13:43:15.771Z,41.10
2018-05-21T13:45:43.288Z,41.10
2018-05-21T13:48:11.295Z,42.70
2018-05-21T13:50:38.847Z,40.70
2018-05-21T13:53:06.426Z,39.20
2018-05-21T13:55:33.980Z,38.40
2018-05-21T13:58:01.552Z,41.00
2018-05-21T14:00:29.110Z,40.50
2018-05-21T14:02:56.703Z,38.40
2018-05-21T14:05:24.278Z,38.80
2018-05-21T14:07:51.844Z,40.30
2018-05-21T14:10:20.082Z,39.20
2018-05-21T14:12:48.422Z,40.30
2018-05-21T14:15:16.027Z,40.20
2018-05-21T14:17:43.597Z,38.50
2018-05-21T14:20:11.177Z,37.70
2018-05-21T14:22:38.759Z,37.20
2018-05-21T14:25:06.363Z,38.00
2018-05-21T14:27:33.934Z,39.70
2018-05-21T14:30:01.540Z,36.80
2018-05-21T14:32:29.123Z,36.80
2018-05-21T14:34:56.671Z,38.00
2018-05-21T14:37:24.259Z,38.00
2018-05-21T14:39:51.820Z,37.50
2018-05-21T14:42:19.447Z,37.30
2018-05-21T14:44:47.767Z,37.50
2018-05-21T14:47:15.356Z,37.40
2018-05-21T14:49:42.947Z,36.10
2018-05-21T14:52:10.500Z,35.70
2018-05-21T14:54:38.064Z,36.00
2018-05-21T14:57:05.624Z,36.50
2018-05-21T14:59:33.197Z,35.70
2018-05-21T15:02:06.750Z,35.20
2018-05-21T15:04:34.349Z,34.90
2018-05-21T15:07:01.900Z,33.70
2018-05-21T15:09:29.484Z,34.30
2018-05-21T15:12:00.818Z,36.00
2018-05-21T15:14:34.373Z,36.00
2018-05-21T15:17:02.692Z,34.70
2018-05-21T15:19:30.269Z,35.30
2018-05-21T15:21:57.836Z,35.70
2018-05-21T15:24:25.435Z,34.30
2018-05-21T15:26:53.015Z,35.00
2018-05-21T15:29:20.583Z,35.70
2018-05-21T15:31:48.172Z,35.50
2018-05-21T15:34:15.735Z,35.60
2018-05-21T15:36:43.295Z,35.30
2018-05-21T15:39:10.859Z,35.70
2018-05-21T15:41:38.753Z,35.70
2018-05-21T15:44:06.485Z,36.10
2018-05-21T15:46:36.320Z,35.10
2018-05-21T15:49:03.895Z,35.10
2018-05-21T15:51:35.946Z,35.50
2018-05-21T15:54:10.149Z,35.20
2018-05-21T15:56:38.496Z,35.80
2018-05-21T15:59:06.080Z,35.70
2018-05-21T16:01:33.645Z,35.90
2018-05-21T16:04:02.043Z,35.80
2018-05-21T16:06:29.629Z,35.80
2018-05-21T16:08:57.257Z,35.90
2018-05-21T16:11:24.821Z,35.30
2018-05-21T16:13:52.412Z,36.80
2018-05-21T16:16:20.007Z,37.00
2018-05-21T16:18:48.391Z,36.40
2018-05-21T16:21:15.959Z,36.30
2018-05-21T16:23:43.508Z,36.70
2018-05-21T16:26:11.091Z,36.60
2018-05-21T16:28:38.653Z,37.10
2018-05-21T16:31:06.217Z,37.00
2018-05-21T16:33:33.781Z,36.80
2018-05-21T16:36:01.368Z,38.50
2018-05-21T16:38:28.920Z,37.90
2018-05-21T16:40:57.254Z,37.10
2018-05-21T16:43:24.819Z,37.10
2018-05-21T16:45:52.413Z,37.70
2018-05-21T16:48:21.476Z,36.70
2018-05-21T16:50:49.044Z,36.80
2018-05-21T16:53:16.593Z,36.60
2018-05-21T16:55:44.942Z,36.00
2018-05-21T16:58:12.535Z,36.00
2018-05-21T17:00:40.107Z,36.80
2018-05-21T17:03:07.668Z,37.20
2018-05-21T17:05:35.273Z,36.60
2018-05-21T17:08:03.628Z,37.30
2018-05-21T17:10:34.939Z,37.30
2018-05-21T17:13:02.865Z,37.30
2018-05-21T17:15:37.215Z,37.20
2018-05-21T17:18:07.303Z,37.50
2018-05-21T17:20:35.327Z,38.90
2018-05-21T17:23:10.969Z,38.10
2018-05-21T17:25:39.019Z,38.80
2018-05-21T17:28:06.569Z,38.60
2018-05-21T17:30:39.565Z,38.50
2018-05-21T17:33:07.145Z,38.50
2018-05-21T17:35:34.757Z,39.00
2018-05-21T17:38:02.307Z,38.20
2018-05-21T17:40:29.872Z,38.60
2018-05-21T17:42:57.420Z,38.60
2018-05-21T17:45:25.014Z,37.50
2018-05-21T17:47:52.554Z,38.20
2018-05-21T17:50:20.171Z,37.80
2018-05-21T17:52:48.036Z,38.00
2018-05-21T17:55:15.631Z,37.60
2018-05-21T17:57:44.723Z,37.00
2018-05-21T18:00:13.020Z,37.30
2018-05-21T18:02:40.612Z,37.30
2018-05-21T18:05:08.163Z,37.40
2018-05-21T18:07:35.730Z,37.30
2018-05-21T18:10:14.405Z,37.80
2018-05-21T18:12:42.254Z,38.30
2018-05-21T18:15:09.824Z,38.00
2018-05-21T18:17:37.396Z,38.70
2018-05-21T18:20:04.952Z,39.20
2018-05-21T18:22:32.537Z,40.10
2018-05-21T18:25:00.340Z,40.60
2018-05-21T18:27:27.987Z,41.30
2018-05-21T18:29:55.543Z,41.60
2018-05-21T18:32:23.447Z,41.70
2018-05-21T18:34:51.013Z,41.90
2018-05-21T18:37:18.575Z,42.50
2018-05-21T18:39:46.186Z,42.80
2018-05-21T18:42:13.905Z,43.40
2018-05-21T18:44:41.407Z,43.60
2018-05-21T18:47:08.988Z,44.10
2018-05-21T18:49:36.537Z,44.40
2018-05-21T18:52:04.103Z,44.80
2018-05-21T18:54:31.993Z,45.20
2018-05-21T18:56:59.567Z,46.10
2018-05-21T18:59:27.137Z,46.80
2018-05-21T19:01:54.728Z,47.30
2018-05-21T19:04:22.453Z,47.50
2018-05-21T19:06:50.973Z,47.90
2018-05-21T19:09:18.542Z,48.40
2018-05-21T19:11:46.101Z,49.40
2018-05-21T19:14:13.899Z,49.60
2018-05-21T19:16:41.572Z,50.20
2018-05-21T19:19:13.879Z,51.40
2018-05-21T19:21:41.437Z,51.40
2018-05-21T19:24:09.020Z,51.90
2018-05-21T19:26:36.580Z,52.50
2018-05-21T19:29:04.348Z,53.40
2018-05-21T19:31:32.013Z,54.10
2018-05-21T19:33:59.607Z,54.90
2018-05-21T19:36:27.197Z,55.60
2018-05-21T19:38:54.817Z,57.00
2018-05-21T19:41:22.375Z,58.50
2018-05-21T19:43:50.768Z,63.30
2018-05-21T19:46:19.232Z,65.90
2018-05-21T19:48:46.811Z,66.60
2018-05-21T19:51:14.350Z,68.20
2018-05-21T19:53:41.961Z,70.40
2018-05-21T19:56:09.520Z,72.60
2018-05-21T19:58:37.125Z,74.70
2018-05-21T20:01:04.854Z,78.50
2018-05-21T20:03:34.464Z,84.30
2018-05-21T20:06:03.835Z,86.90
2018-05-21T20:08:32.176Z,88.60
2018-05-21T20:10:59.820Z,87.90
2018-05-21T20:13:27.391Z,90.00
2018-05-21T20:15:54.955Z,90.90
2018-05-21T20:18:33.370Z,92.00
2018-05-21T20:21:01.719Z,92.80
2018-05-21T20:23:29.267Z,92.80
2018-05-21T20:25:56.859Z,93.10
2018-05-21T20:28:24.622Z,93.70
2018-05-21T20:30:53.047Z,96.90
2018-05-21T20:33:20.615Z,96.50
2018-05-21T20:35:48.182Z,96.50
2018-05-21T20:38:15.783Z,97.10
2018-05-21T20:40:44.135Z,97.70
2018-05-21T20:43:11.760Z,97.70
2018-05-21T20:45:39.291Z,98.80
2018-05-21T20:48:06.871Z,98.20
2018-05-21T20:50:34.489Z,98.50
2018-05-21T20:53:02.044Z,99.10
2018-05-21T20:55:29.607Z,99.20
2018-05-21T20:57:57.950Z,99.40
2018-05-21T21:00:25.527Z,99.30
2018-05-21T21:02:53.920Z,99.60
2018-05-21T21:05:21.519Z,99.60
2018-05-21T21:07:49.835Z,99.70
2018-05-21T21:10:17.400Z,99.70
2018-05-21T21:12:45.730Z,99.90
2018-05-21T21:15:13.326Z,99.90
2018-05-21T21:17:40.883Z,99.90
2018-05-21T21:20:08.451Z,99.90
2018-05-21T21:22:36.011Z,99.90
2018-05-21T21:25:03.599Z,99.90
2018-05-21T21:27:31.191Z,99.90
2018-05-21T21:29:58.763Z,99.90
2018-05-21T21:32:26.411Z,99.90
2018-05-21T21:34:54.668Z,99.90
2018-05-21T21:37:22.276Z,99.90
2018-05-21T21:39:49.832Z,99.90
2018-05-21T21:42:17.407Z,99.90
2018-05-21T21:44:45.040Z,99.90
2018-05-21T21:47:12.613Z,99.90
2018-05-21T21:49:40.937Z,99.90
2018-05-21T21:52:08.499Z,99.90
2018-05-21T21:54:36.084Z,99.90
2018-05-21T21:57:03.689Z,99.90
2018-05-21T21:59:31.247Z,99.90
2018-05-21T22:01:58.848Z,99.90
2018-05-21T22:04:27.207Z,99.90
2018-05-21T22:06:54.772Z,99.90
2018-05-21T22:09:22.323Z,99.90
2018-05-21T22:11:49.953Z,99.90
2018-05-21T22:14:18.309Z,99.90
2018-05-21T22:16:45.883Z,99.90
2018-05-21T22:19:13.435Z,99.90
2018-05-21T22:21:41.033Z,99.90
2018-05-21T22:24:09.343Z,99.90
2018-05-21T22:26:36.940Z,99.90
2018-05-21T22:29:04.491Z,99.90
2018-05-21T22:31:32.099Z,99.90
2018-05-21T22:33:59.696Z,99.90
2018-05-21T22:36:27.264Z,99.90
2018-05-21T22:38:54.813Z,99.90
2018-05-21T22:41:22.415Z,99.90
2018-05-21T22:43:49.965Z,99.90
2018-05-21T22:46:22.548Z,99.90
2018-05-21T22:48:50.951Z,99.90
2018-05-21T22:51:18.520Z,99.90
2018-05-21T22:53:46.139Z,99.90
2018-05-21T22:56:13.679Z,99.90
2018-05-21T22:58:41.244Z,99.90
2018-05-21T23:01:08.836Z,99.90
2018-05-21T23:03:36.420Z,99.90
2018-05-21T23:06:03.991Z,99.90
2018-05-21T23:08:31.556Z,99.90
2018-05-21T23:10:59.094Z,99.90
2018-05-21T23:13:26.657Z,99.90
2018-05-21T23:15:54.210Z,99.90
2018-05-21T23:18:22.547Z,99.90
2018-05-21T23:20:50.884Z,99.90
2018-05-21T23:23:19.255Z,99.90
2018-05-21T23:25:46.813Z,99.90
2018-05-21T23:28:14.397Z,99.90
2018-05-21T23:30:41.948Z,99.90
2018-05-21T23:33:09.516Z,99.90
2018-05-21T23:35:37.120Z,99.90
2018-05-21T23:38:04.704Z,99.90
2018-05-21T23:40:32.251Z,99.90
2018-05-21T23:42:59.830Z,99.90
2018-05-21T23:45:27.450Z,99.90
2018-05-21T23:47:55.012Z,99.90
2018-05-21T23:50:23.378Z,99.90
2018-05-21T23:52:51.715Z,99.90
2018-05-21T23:55:19.263Z,99.90
2018-05-21T23:57:46.854Z,99.90
